Terminal Aerodrome Forecast
Issued by NWS

Home | Current Version | Previous Version | Text Only | Print | Product List | Glossary Off
Versions: 1 2 3 4 5 6 7 8 9 10 11 12 13 14 15

000
FTUS43 KICT 232137 AAA
TAFRSL
TAF AMD
KRSL 232137Z 2322/2418 17016G24KT P6SM VCTS SCT070CB BKN250
     FM240800 17011KT P6SM SCT250
     FM241600 19015G23KT P6SM SCT200=

USA.gov is the U.S. government's official web portal to all federal, state and local government web resources and services.